Huvudsida
METAR-TAF:

METAR-TAF

Flygplatser :

Karlstad, Sverige

Karlstad Airport

latitud: 59-26-41N, longitud: 013-20-15E, höjd: 107 m

Aktuellt väderrapport

Denna rapport gjordes för 38 minuter sedan, klockan 10:20 UTC
Vind 3 kt från ost
Temperatur 0°C
Fuktighet 100%
Tryck 984 hPa
Sikt: 4000 m
Mulet på en höjd av 200 ft
lätt snö

METAR: ESOK 171020Z 09003KT 4000 -SN OVC002 00/00 Q0984

Tid: 11:58 (10:58 UTC)

Väderprognos

Denna rapport gjordes för 2 timmar och 28 minuter sedan, klockan 08:30 UTC
Prognos gäller från 17 kl. 09 UTC till 17 kl. 18 UTC
Vind 5 kt från ost
Sikt: 5000 m
Spridda moln på en höjd av 200 ft
Mulet på en höjd av 700 ft
lätt snö
Temporärt
från 17 kl. 09 UTC till 17 kl. 18 UTC
Sikt: 1200 m
Mulet på en höjd av 200 ft
snö

TAF: ESOK 170830Z 1709/1718 09005KT 5000 -SN SCT002 OVC007 TEMPO 1709/1718 1200 SN OVC002

Aktuella väderrapporter och prognoser från 4000 flygplatser (METAR- och TAF-rapporter).

De tillgängliga stationerna syns som gula och röda prickar på kartan.

För musen över prickarna för att se namnen på stationerna.

Klicka sedan för att få väderrapporter och prognoser.

För att ändra kartan: Klicka på de gröna knapparna med ett svart kors på för att zooma in; den gröna knappen med ett streck på för att zooma ut; eller på de gröna pilarna för angränsande kartor.


METAR-TAF: